Time;durP1;ratioP1;P1;durP2;ratioP2;P2;SDS_P1;SDS_P2;PMS_P1;PMS_P2;Temp;Humidity;BMP_temperature;BMP_pressure;BME280_temperature;BME280_humidity;BME280_pressure;Samples;Min_cycle;Max_cycle;Signal;HPM_P1;HPM_P2
2023/08/25 00:00:10;;;;;;;29.67;26.45;;;20.70;99.90;;;;;;4878636;29;20048;-72
2023/08/25 00:02:36;;;;;;;30.20;27.13;;;20.60;99.90;;;;;;4863468;29;20148;-71
2023/08/25 00:05:03;;;;;;;29.30;26.63;;;20.60;99.90;;;;;;4878489;29;20131;-72
2023/08/25 00:07:29;;;;;;;30.52;27.67;;;20.60;99.90;;;;;;4880203;29;20056;-71
2023/08/25 00:09:55;;;;;;;31.05;27.88;;;20.60;99.90;;;;;;4879120;29;20049;-74
2023/08/25 00:12:22;;;;;;;31.77;28.55;;;20.60;99.90;;;;;;4879885;29;20057;-71
2023/08/25 00:14:48;;;;;;;32.58;29.42;;;20.60;99.90;;;;;;4879089;29;20045;-71
2023/08/25 00:17:14;;;;;;;31.88;28.60;;;20.50;99.90;;;;;;4878909;29;20148;-72
2023/08/25 00:19:40;;;;;;;31.55;28.15;;;20.50;99.90;;;;;;4884963;29;20045;-71
2023/08/25 00:22:06;;;;;;;32.00;28.77;;;20.50;99.90;;;;;;4879315;29;20516;-72
2023/08/25 00:24:34;;;;;;;32.65;29.27;;;20.50;99.90;;;;;;4863580;29;20127;-71
2023/08/25 00:27:00;;;;;;;32.58;29.38;;;20.50;99.90;;;;;;4886623;29;20055;-71
2023/08/25 00:29:26;;;;;;;33.33;29.02;;;20.50;99.90;;;;;;4891432;29;20411;-70
2023/08/25 00:31:52;;;;;;;33.25;29.65;;;20.40;99.90;;;;;;4888509;29;20060;-71
2023/08/25 00:34:17;;;;;;;32.15;28.65;;;20.40;99.90;;;;;;4882963;29;20052;-72
2023/08/25 00:36:43;;;;;;;34.30;31.00;;;20.40;99.90;;;;;;4866353;29;20520;-72
2023/08/25 00:39:10;;;;;;;32.25;28.95;;;20.30;99.90;;;;;;4885831;29;20495;-71
2023/08/25 00:41:36;;;;;;;33.67;30.17;;;20.30;99.90;;;;;;4877845;29;20388;-71
2023/08/25 00:44:02;;;;;;;34.45;31.10;;;20.30;99.90;;;;;;4879784;29;20068;-72
2023/08/25 00:46:29;;;;;;;36.13;32.58;;;20.30;99.90;;;;;;4878979;29;20124;-71
2023/08/25 00:48:55;;;;;;;34.60;31.15;;;20.30;99.90;;;;;;4880515;29;20115;-71
2023/08/25 00:51:21;;;;;;;36.05;32.33;;;20.30;99.90;;;;;;4878728;29;20124;-72
2023/08/25 00:53:48;;;;;;;35.42;31.95;;;20.30;99.90;;;;;;4885933;29;20503;-72
2023/08/25 00:56:14;;;;;;;35.00;31.45;;;20.30;99.90;;;;;;4885100;29;20105;-72
2023/08/25 00:58:40;;;;;;;33.45;30.02;;;20.30;99.90;;;;;;4884001;29;20045;-72
2023/08/25 01:01:06;;;;;;;35.92;32.30;;;20.30;99.90;;;;;;4881359;29;20056;-72
2023/08/25 01:03:35;;;;;;;36.33;32.63;;;20.30;99.90;;;;;;4880549;29;20044;-71
2023/08/25 01:06:02;;;;;;;36.97;33.05;;;20.20;99.90;;;;;;4863887;29;20140;-75
2023/08/25 01:08:29;;;;;;;36.00;32.22;;;20.30;99.90;;;;;;4880695;29;20049;-71
2023/08/25 01:11:26;;;;;;;36.95;33.13;;;20.30;99.90;;;;;;4864094;29;20057;-71
2023/08/25 01:14:10;;;;;;;36.00;32.10;;;20.30;99.90;;;;;;4878780;29;20136;-71
2023/08/25 01:16:45;;;;;;;40.20;36.00;;;20.30;99.90;;;;;;4878506;29;20142;-71
2023/08/25 01:19:49;;;;;;;37.70;33.72;;;20.30;99.90;;;;;;4880571;29;20076;-71
2023/08/25 01:22:21;;;;;;;38.03;33.30;;;20.30;99.90;;;;;;4849486;29;20483;-71
2023/08/25 01:24:51;;;;;;;36.20;32.03;;;20.30;99.90;;;;;;4889535;29;20048;-71
2023/08/25 01:27:18;;;;;;;36.55;32.65;;;20.40;99.90;;;;;;4880753;29;20049;-71
2023/08/25 01:29:44;;;;;;;37.55;32.75;;;20.40;99.90;;;;;;4879347;29;20036;-71
2023/08/25 01:32:10;;;;;;;37.90;33.92;;;20.40;99.90;;;;;;4877807;29;20059;-71
2023/08/25 01:34:36;;;;;;;36.45;32.58;;;20.30;99.90;;;;;;4879019;29;20041;-72
2023/08/25 01:37:17;;;;;;;37.28;33.03;;;20.40;99.90;;;;;;4877637;29;20048;-71
2023/08/25 01:39:45;;;;;;;36.83;33.03;;;20.40;99.90;;;;;;4878703;29;20119;-72
2023/08/25 01:42:13;;;;;;;38.33;32.65;;;20.30;99.90;;;;;;4876930;29;20049;-71
2023/08/25 01:44:41;;;;;;;38.00;34.00;;;20.30;99.90;;;;;;4877375;29;20049;-71
2023/08/25 01:47:08;;;;;;;38.60;34.60;;;20.30;99.90;;;;;;4886148;29;20057;-75
2023/08/25 01:49:37;;;;;;;40.85;35.88;;;20.30;99.90;;;;;;4878172;29;20117;-71
2023/08/25 01:52:04;;;;;;;37.28;33.35;;;20.30;99.90;;;;;;4878168;29;20077;-72
2023/08/25 01:54:30;;;;;;;39.33;34.63;;;20.30;99.90;;;;;;4877999;29;20088;-71
2023/08/25 01:56:55;;;;;;;42.65;35.78;;;20.30;99.90;;;;;;4877350;29;20053;-72
2023/08/25 01:59:21;;;;;;;40.10;35.83;;;20.30;99.90;;;;;;4878060;29;20049;-71
2023/08/25 02:01:47;;;;;;;40.35;36.03;;;20.20;99.90;;;;;;4882898;29;20048;-71
2023/08/25 02:04:13;;;;;;;43.15;37.85;;;20.20;99.90;;;;;;4876710;29;20041;-71
2023/08/25 02:06:38;;;;;;;40.00;35.90;;;20.20;99.90;;;;;;4877322;29;20063;-71
2023/08/25 02:09:04;;;;;;;39.13;34.95;;;20.20;99.90;;;;;;4878489;29;20360;-71
2023/08/25 02:11:30;;;;;;;40.35;36.05;;;20.10;99.90;;;;;;4877791;29;20064;-71
2023/08/25 02:13:56;;;;;;;40.20;36.00;;;20.10;99.90;;;;;;4878119;29;20160;-71
2023/08/25 02:16:21;;;;;;;38.88;34.72;;;20.10;99.90;;;;;;4877686;29;20120;-72
2023/08/25 02:18:47;;;;;;;41.65;36.83;;;20.00;99.90;;;;;;4878262;29;20124;-72
2023/08/25 02:21:13;;;;;;;42.75;36.03;;;20.00;99.90;;;;;;4880228;29;20044;-72
2023/08/25 02:23:40;;;;;;;40.67;34.22;;;19.90;99.90;;;;;;4881160;29;20081;-72
2023/08/25 02:26:05;;;;;;;39.67;35.38;;;19.90;99.90;;;;;;4861766;29;20063;-72
2023/08/25 02:28:31;;;;;;;41.67;34.60;;;19.90;99.90;;;;;;4877574;29;20136;-71
2023/08/25 02:30:57;;;;;;;42.97;34.67;;;19.90;99.90;;;;;;4891112;29;20061;-71
2023/08/25 02:33:22;;;;;;;38.00;33.90;;;19.90;99.90;;;;;;4880944;29;20053;-71
2023/08/25 02:35:48;;;;;;;43.28;35.50;;;19.90;99.90;;;;;;4884823;29;20136;-71
2023/08/25 02:38:14;;;;;;;39.85;35.55;;;19.90;99.90;;;;;;4881679;29;20045;-77
2023/08/25 02:40:40;;;;;;;40.95;35.95;;;19.80;99.90;;;;;;4877642;29;20045;-72
2023/08/25 02:43:06;;;;;;;40.95;36.35;;;19.80;99.90;;;;;;4870467;29;20113;-72
2023/08/25 02:45:33;;;;;;;41.80;37.25;;;19.80;99.90;;;;;;4881521;29;20049;-72
2023/08/25 02:47:59;;;;;;;43.35;36.90;;;19.90;99.90;;;;;;4880654;29;20053;-72
2023/08/25 02:50:25;;;;;;;41.92;36.72;;;19.80;99.90;;;;;;4880494;29;20056;-74
2023/08/25 02:52:52;;;;;;;41.30;35.05;;;19.90;99.90;;;;;;4882971;29;20409;-73
2023/08/25 02:55:20;;;;;;;39.67;34.97;;;19.90;99.90;;;;;;4880698;29;20491;-73
2023/08/25 02:57:47;;;;;;;41.78;36.15;;;19.90;99.90;;;;;;4864979;29;20496;-72
2023/08/25 03:00:16;;;;;;;41.78;35.40;;;19.90;99.90;;;;;;4864989;29;20053;-72
2023/08/25 03:02:42;;;;;;;39.17;35.00;;;19.90;99.90;;;;;;4882605;29;20052;-71
2023/08/25 03:05:12;;;;;;;40.05;35.72;;;20.00;99.90;;;;;;4890414;29;20048;-71
2023/08/25 03:07:37;;;;;;;42.97;36.08;;;20.00;99.90;;;;;;4884906;29;20049;-72
2023/08/25 03:10:03;;;;;;;43.28;36.53;;;20.00;99.90;;;;;;4875572;29;20056;-71
2023/08/25 03:12:29;;;;;;;40.72;36.22;;;20.00;99.90;;;;;;4892964;29;20384;-73
2023/08/25 03:14:55;;;;;;;41.80;35.58;;;20.00;99.90;;;;;;4872203;29;20060;-72
2023/08/25 03:17:22;;;;;;;45.22;36.97;;;20.00;99.90;;;;;;4864257;29;20057;-71
2023/08/25 03:19:48;;;;;;;46.15;36.33;;;20.00;99.90;;;;;;4880111;29;20061;-69
2023/08/25 03:22:14;;;;;;;42.75;34.08;;;20.00;99.90;;;;;;4883275;29;20045;-70
2023/08/25 03:24:40;;;;;;;39.72;34.20;;;20.00;99.90;;;;;;4889097;29;20112;-72
2023/08/25 03:27:06;;;;;;;46.10;36.35;;;20.00;99.90;;;;;;4880988;29;20073;-72
2023/08/25 03:29:31;;;;;;;41.17;34.75;;;20.00;99.90;;;;;;4881200;29;20500;-73
2023/08/25 03:31:58;;;;;;;45.85;35.40;;;20.00;99.90;;;;;;4881479;29;20077;-72
2023/08/25 03:34:24;;;;;;;45.47;36.97;;;20.00;99.90;;;;;;4865096;29;20115;-72
2023/08/25 03:36:49;;;;;;;43.35;36.40;;;20.00;99.90;;;;;;4880946;29;20076;-71
2023/08/25 03:39:15;;;;;;;48.05;36.47;;;20.00;99.90;;;;;;4881133;29;20080;-71
2023/08/25 03:41:41;;;;;;;43.72;36.70;;;20.00;99.90;;;;;;4879076;29;20636;-72
2023/08/25 03:44:07;;;;;;;43.70;36.28;;;20.00;99.90;;;;;;4879653;29;20507;-71
2023/08/25 03:46:33;;;;;;;44.30;35.38;;;20.00;99.90;;;;;;4884541;29;20048;-72
2023/08/25 03:48:59;;;;;;;42.47;36.25;;;20.00;99.90;;;;;;4891132;29;20387;-72
2023/08/25 03:51:24;;;;;;;40.40;35.10;;;20.00;99.90;;;;;;4880392;29;20047;-73
2023/08/25 03:53:50;;;;;;;42.03;36.50;;;20.00;99.90;;;;;;4878524;29;20104;-72
2023/08/25 03:56:16;;;;;;;43.30;35.78;;;20.00;99.90;;;;;;4881294;29;20389;-72
2023/08/25 03:58:42;;;;;;;45.85;37.88;;;20.00;99.90;;;;;;4892985;29;20191;-72
2023/08/25 04:01:08;;;;;;;45.22;36.90;;;20.00;99.90;;;;;;4880149;29;20052;-71
2023/08/25 04:03:34;;;;;;;48.85;39.42;;;20.00;99.90;;;;;;4862660;29;20045;-72
2023/08/25 04:06:00;;;;;;;43.60;38.13;;;20.00;99.90;;;;;;4882636;29;20096;-72
2023/08/25 04:08:26;;;;;;;44.10;37.75;;;20.00;99.90;;;;;;4883113;29;20591;-76
2023/08/25 04:10:52;;;;;;;49.13;37.38;;;19.90;99.90;;;;;;4878767;29;20090;-72
2023/08/25 04:13:18;;;;;;;42.90;36.97;;;19.90;99.90;;;;;;4878565;29;20428;-71
2023/08/25 04:15:44;;;;;;;42.95;37.40;;;19.90;99.90;;;;;;4893913;29;20083;-71
2023/08/25 04:18:10;;;;;;;43.95;38.53;;;19.90;99.90;;;;;;4870007;29;20057;-72
2023/08/25 04:20:36;;;;;;;47.75;39.00;;;19.90;99.90;;;;;;4862877;29;20427;-71
2023/08/25 04:23:02;;;;;;;47.67;39.30;;;19.90;99.90;;;;;;4879494;29;20049;-72
2023/08/25 04:25:29;;;;;;;46.63;39.80;;;19.90;99.90;;;;;;4879308;29;20081;-76
2023/08/25 04:27:56;;;;;;;49.45;40.28;;;19.90;99.90;;;;;;4885562;29;21709;-71
2023/08/25 04:30:22;;;;;;;45.55;39.15;;;19.80;99.90;;;;;;4878311;29;20096;-70
2023/08/25 04:32:52;;;;;;;49.47;40.92;;;19.80;99.90;;;;;;4878959;29;20049;-71
2023/08/25 04:35:18;;;;;;;46.95;39.55;;;19.80;99.90;;;;;;4862629;29;20511;-71
2023/08/25 04:37:47;;;;;;;45.35;39.40;;;19.80;99.90;;;;;;4879915;29;20093;-71
2023/08/25 04:40:19;;;;;;;47.80;40.35;;;19.80;99.90;;;;;;4869414;29;20107;-72
2023/08/25 04:42:45;;;;;;;50.20;40.97;;;19.80;99.90;;;;;;4883953;29;20067;-72
2023/08/25 04:45:12;;;;;;;51.15;40.28;;;19.80;99.90;;;;;;4863454;29;20041;-72
2023/08/25 04:47:38;;;;;;;54.90;40.92;;;19.80;99.90;;;;;;4880891;29;20491;-71
2023/08/25 04:50:07;;;;;;;51.92;41.75;;;19.80;99.90;;;;;;4863692;29;20091;-72
2023/08/25 04:52:34;;;;;;;47.88;40.10;;;19.80;99.90;;;;;;4877849;29;20451;-74
2023/08/25 04:55:01;;;;;;;53.75;40.95;;;19.80;99.90;;;;;;4879031;29;20049;-72
2023/08/25 04:57:27;;;;;;;51.67;41.60;;;19.80;99.90;;;;;;4862783;29;20045;-71
2023/08/25 04:59:53;;;;;;;59.55;41.72;;;19.80;99.90;;;;;;4881552;29;20079;-71
2023/08/25 05:02:18;;;;;;;55.85;43.50;;;19.80;99.90;;;;;;4877720;29;20095;-71
2023/08/25 05:04:44;;;;;;;57.67;42.15;;;19.80;99.90;;;;;;4861740;29;20049;-71
2023/08/25 05:07:10;;;;;;;59.63;43.85;;;19.80;99.90;;;;;;4862472;29;20096;-71
2023/08/25 05:09:36;;;;;;;60.58;43.03;;;19.80;99.90;;;;;;4878964;29;20127;-72
2023/08/25 05:12:01;;;;;;;58.10;41.95;;;19.80;99.90;;;;;;4877652;29;20498;-71
2023/08/25 05:14:27;;;;;;;57.38;43.85;;;19.80;99.90;;;;;;4893480;29;20514;-71
2023/08/25 05:16:53;;;;;;;57.50;43.50;;;19.90;99.90;;;;;;4877136;29;20056;-71
2023/08/25 05:19:20;;;;;;;54.97;41.95;;;19.80;99.90;;;;;;4881320;29;20487;-71
2023/08/25 05:21:46;;;;;;;63.72;44.78;;;19.80;99.90;;;;;;4877264;29;20068;-74
2023/08/25 05:24:23;;;;;;;58.45;42.08;;;19.90;99.90;;;;;;4873351;29;20045;-71
2023/08/25 05:26:51;;;;;;;57.67;42.60;;;19.90;99.90;;;;;;4887211;29;20055;-71
2023/08/25 05:29:26;;;;;;;60.70;43.42;;;19.90;99.90;;;;;;4880339;29;20052;-71
2023/08/25 05:31:53;;;;;;;58.88;43.30;;;19.80;99.90;;;;;;4861952;29;20065;-71
2023/08/25 05:34:18;;;;;;;60.65;42.17;;;19.80;99.90;;;;;;4869280;29;20050;-72
2023/08/25 05:36:44;;;;;;;61.53;45.10;;;19.80;99.90;;;;;;4870157;29;20105;-71
2023/08/25 05:39:11;;;;;;;60.97;44.35;;;19.90;99.90;;;;;;4877686;29;20454;-73
2023/08/25 05:41:37;;;;;;;64.63;42.97;;;19.90;99.90;;;;;;4874751;29;20078;-75
2023/08/25 05:44:03;;;;;;;60.95;45.28;;;19.90;99.90;;;;;;4878071;29;20063;-71
2023/08/25 05:46:30;;;;;;;64.43;45.08;;;19.90;99.90;;;;;;4878337;29;20048;-70
2023/08/25 05:48:59;;;;;;;63.28;43.83;;;19.90;99.90;;;;;;4878092;29;20045;-72
2023/08/25 05:51:25;;;;;;;59.72;43.45;;;20.00;99.90;;;;;;4881262;29;20049;-71
2023/08/25 05:53:51;;;;;;;63.53;44.50;;;19.90;99.90;;;;;;4856026;29;20060;-72
2023/08/25 05:56:17;;;;;;;63.10;45.08;;;19.90;99.90;;;;;;4859369;29;20057;-72
2023/08/25 05:58:43;;;;;;;66.38;45.83;;;20.00;99.90;;;;;;4875664;29;20053;-72
2023/08/25 06:01:10;;;;;;;62.85;44.13;;;20.00;99.90;;;;;;4884288;29;20049;-71
2023/08/25 06:03:36;;;;;;;70.15;45.65;;;20.00;99.90;;;;;;4881287;29;20081;-70
2023/08/25 06:06:03;;;;;;;65.40;43.97;;;20.00;99.90;;;;;;4850616;29;20112;-71
2023/08/25 06:08:30;;;;;;;61.38;45.53;;;20.00;99.90;;;;;;4874535;29;20049;-70
2023/08/25 06:10:56;;;;;;;68.35;46.17;;;20.00;99.90;;;;;;4877976;29;20053;-71
2023/08/25 06:13:22;;;;;;;70.03;47.85;;;20.00;99.90;;;;;;4886251;29;20053;-72
2023/08/25 06:15:48;;;;;;;65.63;46.33;;;20.00;99.90;;;;;;4879822;29;20368;-71
2023/08/25 06:18:15;;;;;;;62.88;45.90;;;20.00;99.90;;;;;;4881017;29;20085;-71
2023/08/25 06:20:41;;;;;;;79.70;48.35;;;20.10;99.90;;;;;;4865755;29;20515;-71
2023/08/25 06:23:07;;;;;;;66.05;47.63;;;20.10;99.90;;;;;;4882275;29;20045;-70
2023/08/25 06:25:33;;;;;;;68.43;45.78;;;20.10;99.90;;;;;;4863297;29;20057;-73
2023/08/25 06:27:59;;;;;;;72.35;48.88;;;20.10;99.90;;;;;;4879630;29;20128;-71
2023/08/25 06:30:26;;;;;;;65.88;45.28;;;20.10;99.90;;;;;;4880362;29;20053;-71
2023/08/25 06:32:52;;;;;;;73.18;49.70;;;20.10;99.90;;;;;;4886115;29;20464;-70
2023/08/25 06:35:18;;;;;;;61.08;43.33;;;20.10;99.90;;;;;;4884092;29;20112;-71
2023/08/25 06:37:44;;;;;;;59.47;44.58;;;20.10;99.90;;;;;;4880313;29;20044;-71
2023/08/25 06:40:10;;;;;;;60.25;41.30;;;20.10;99.90;;;;;;4879651;29;20496;-71
2023/08/25 06:42:37;;;;;;;58.83;41.70;;;20.10;99.90;;;;;;4866987;29;20055;-71
2023/08/25 06:45:05;;;;;;;58.28;41.20;;;20.10;99.90;;;;;;4880822;29;20047;-71
2023/08/25 06:47:31;;;;;;;60.78;43.05;;;20.10;99.90;;;;;;4881034;29;20503;-71
2023/08/25 06:49:57;;;;;;;60.25;43.55;;;20.10;99.90;;;;;;4879755;29;20136;-71
2023/08/25 06:52:23;;;;;;;58.65;40.55;;;20.20;99.90;;;;;;4881261;29;20133;-72
2023/08/25 06:54:49;;;;;;;58.80;40.33;;;20.20;99.90;;;;;;4885371;29;20402;-79
2023/08/25 06:57:15;;;;;;;58.35;40.25;;;20.20;99.90;;;;;;4881685;29;20044;-71
2023/08/25 06:59:40;;;;;;;61.45;41.20;;;20.20;99.90;;;;;;4865073;29;20072;-73
2023/08/25 07:02:07;;;;;;;58.58;41.63;;;20.30;99.90;;;;;;4885216;29;20076;-75
2023/08/25 07:04:33;;;;;;;58.30;40.50;;;20.30;99.90;;;;;;4881427;29;20041;-73
2023/08/25 07:07:00;;;;;;;61.80;41.28;;;20.30;99.90;;;;;;4881395;29;20045;-75
2023/08/25 07:09:27;;;;;;;58.83;40.92;;;20.30;99.90;;;;;;4880782;29;20053;-73
2023/08/25 07:11:53;;;;;;;55.63;40.03;;;20.30;99.90;;;;;;4864647;29;20360;-74
2023/08/25 07:14:19;;;;;;;54.78;37.33;;;20.30;99.90;;;;;;4881280;29;20061;-75
2023/08/25 07:16:45;;;;;;;49.90;37.70;;;20.30;99.90;;;;;;4881536;29;20056;-75
2023/08/25 07:19:10;;;;;;;48.90;35.83;;;20.40;99.90;;;;;;4880816;29;20060;-75
2023/08/25 07:21:37;;;;;;;48.45;35.30;;;20.40;99.90;;;;;;4883650;29;20041;-74
2023/08/25 07:24:03;;;;;;;46.25;34.85;;;20.50;99.90;;;;;;4881629;29;20099;-75
2023/08/25 07:26:29;;;;;;;43.80;32.28;;;20.60;99.90;;;;;;4881660;29;20563;-75
2023/08/25 07:28:55;;;;;;;46.38;33.42;;;20.70;99.90;;;;;;4879703;29;20057;-75
2023/08/25 07:31:20;;;;;;;42.45;33.38;;;20.70;99.90;;;;;;4881210;29;20088;-74
2023/08/25 07:33:46;;;;;;;41.83;33.05;;;20.70;99.90;;;;;;4880406;29;20120;-74
2023/08/25 07:36:12;;;;;;;41.35;30.88;;;20.80;99.90;;;;;;4880329;29;20055;-75
2023/08/25 07:38:38;;;;;;;40.17;29.92;;;20.80;99.90;;;;;;4880460;29;20067;-74
2023/08/25 07:41:04;;;;;;;37.25;27.02;;;20.90;99.90;;;;;;4880618;29;20147;-74
2023/08/25 07:43:30;;;;;;;32.97;26.73;;;21.00;99.90;;;;;;4883455;29;20057;-75
2023/08/25 07:45:56;;;;;;;38.80;28.15;;;21.10;99.90;;;;;;4898881;29;20075;-76
2023/08/25 07:48:23;;;;;;;40.45;30.45;;;21.20;99.90;;;;;;4900089;29;20574;-74
2023/08/25 07:50:49;;;;;;;37.40;27.73;;;21.20;99.90;;;;;;4867482;29;20067;-74
2023/08/25 07:53:15;;;;;;;36.63;27.58;;;21.20;99.90;;;;;;4881971;29;20105;-74
2023/08/25 07:55:41;;;;;;;39.70;28.70;;;21.20;99.90;;;;;;4868946;29;20065;-75
2023/08/25 07:58:08;;;;;;;35.17;27.42;;;21.20;99.90;;;;;;4890972;29;20128;-74
2023/08/25 08:00:34;;;;;;;37.70;28.10;;;21.10;99.90;;;;;;4879588;29;20053;-73
2023/08/25 08:03:00;;;;;;;39.83;29.35;;;21.10;99.90;;;;;;4873761;29;20060;-75
2023/08/25 08:05:26;;;;;;;33.63;27.23;;;21.10;99.90;;;;;;4872614;29;20085;-73
2023/08/25 08:07:52;;;;;;;38.38;28.00;;;21.10;99.90;;;;;;4890277;29;20057;-75
2023/08/25 08:10:18;;;;;;;37.47;26.45;;;21.10;99.90;;;;;;4880964;29;20048;-74
2023/08/25 08:12:44;;;;;;;41.00;28.75;;;21.10;99.90;;;;;;4885783;29;20418;-75
2023/08/25 08:15:12;;;;;;;33.88;26.10;;;21.10;99.90;;;;;;4879643;29;20033;-75
2023/08/25 08:17:39;;;;;;;40.33;27.48;;;21.20;99.90;;;;;;4874203;29;20061;-75
2023/08/25 08:20:07;;;;;;;35.00;27.23;;;21.20;99.90;;;;;;4870557;29;20060;-74
2023/08/25 08:22:32;;;;;;;27.02;21.88;;;21.40;99.90;;;;;;4851952;29;20049;-74
2023/08/25 08:24:58;;;;;;;31.27;21.38;;;21.30;99.90;;;;;;4881453;29;20100;-75
2023/08/25 08:27:25;;;;;;;27.08;20.25;;;21.30;99.90;;;;;;4865470;29;20045;-81
2023/08/25 08:29:51;;;;;;;22.92;18.52;;;21.20;99.90;;;;;;4859362;29;20060;-81
2023/08/25 08:32:17;;;;;;;25.27;17.98;;;21.20;99.90;;;;;;4870448;29;20406;-71
2023/08/25 08:34:43;;;;;;;25.65;18.15;;;21.20;99.90;;;;;;4858021;29;20037;-71
2023/08/25 08:37:09;;;;;;;25.45;17.48;;;21.20;99.90;;;;;;4873356;29;20432;-74
2023/08/25 08:39:38;;;;;;;27.50;17.60;;;21.20;99.90;;;;;;4878608;29;20380;-73
2023/08/25 08:42:07;;;;;;;23.58;17.80;;;21.20;99.90;;;;;;4863045;29;20049;-71
2023/08/25 08:44:36;;;;;;;24.75;17.90;;;21.20;99.90;;;;;;4878159;29;20045;-70
2023/08/25 08:47:03;;;;;;;27.15;17.92;;;21.40;99.90;;;;;;4883276;29;20495;-75
2023/08/25 08:49:32;;;;;;;27.10;16.92;;;21.70;99.90;;;;;;4862544;29;20045;-73
2023/08/25 08:52:01;;;;;;;20.42;17.15;;;22.20;99.90;;;;;;4879143;29;20077;-70
2023/08/25 08:54:28;;;;;;;22.83;16.92;;;22.70;99.90;;;;;;4878582;29;20049;-71
2023/08/25 08:56:54;;;;;;;26.15;17.70;;;23.00;99.90;;;;;;4884589;29;20406;-73
2023/08/25 08:59:20;;;;;;;22.25;16.88;;;23.30;99.90;;;;;;4877353;29;20048;-72
2023/08/25 09:01:48;;;;;;;25.55;16.70;;;23.50;99.90;;;;;;4872810;29;20056;-72
2023/08/25 09:04:20;;;;;;;22.20;17.02;;;23.40;99.90;;;;;;4891547;29;20080;-74
2023/08/25 09:06:51;;;;;;;20.97;16.77;;;23.40;99.90;;;;;;4880277;29;20439;-76
2023/08/25 09:09:19;;;;;;;21.50;16.85;;;23.30;99.90;;;;;;4882335;29;20392;-76
2023/08/25 09:11:48;;;;;;;23.27;17.73;;;23.10;99.90;;;;;;4876029;29;20061;-78
2023/08/25 09:14:27;;;;;;;27.05;20.17;;;23.00;99.90;;;;;;4877319;29;20124;-76
2023/08/25 09:17:00;;;;;;;22.27;18.80;;;23.00;99.90;;;;;;4880528;29;20116;-75
2023/08/25 09:19:30;;;;;;;23.77;18.75;;;22.90;99.90;;;;;;4889251;29;20045;-76
2023/08/25 09:21:56;;;;;;;28.20;19.88;;;22.80;99.90;;;;;;4878013;29;20052;-70
2023/08/25 09:24:22;;;;;;;25.23;19.25;;;22.70;99.90;;;;;;4878957;29;20059;-74
2023/08/25 09:26:50;;;;;;;25.13;18.63;;;22.70;99.90;;;;;;4878867;29;20049;-69
2023/08/25 09:29:16;;;;;;;24.80;18.60;;;22.80;99.90;;;;;;4876784;29;20392;-70
2023/08/25 09:31:42;;;;;;;24.73;19.23;;;22.90;99.90;;;;;;4877361;29;20059;-69
2023/08/25 09:34:13;;;;;;;24.52;19.52;;;22.90;99.90;;;;;;4878774;29;20057;-70
2023/08/25 09:36:53;;;;;;;28.48;20.00;;;22.90;99.90;;;;;;4877936;29;20041;-70
2023/08/25 09:39:20;;;;;;;30.20;18.95;;;22.90;99.90;;;;;;4869735;29;20144;-69
2023/08/25 09:41:46;;;;;;;23.63;17.60;;;22.80;99.90;;;;;;4871489;29;20574;-69
2023/08/25 09:44:13;;;;;;;23.75;18.65;;;22.80;99.90;;;;;;4877272;29;20453;-74
2023/08/25 09:46:39;;;;;;;25.38;18.35;;;22.80;99.90;;;;;;4881085;29;20108;-70
2023/08/25 09:49:06;;;;;;;26.40;19.08;;;23.00;99.90;;;;;;4881438;29;20401;-69
2023/08/25 09:51:47;;;;;;;25.65;19.15;;;23.10;99.90;;;;;;4877044;29;20120;-70
2023/08/25 09:54:18;;;;;;;25.15;19.60;;;23.10;99.90;;;;;;4877027;29;20057;-70
2023/08/25 09:56:45;;;;;;;25.20;18.83;;;23.20;99.90;;;;;;4877966;29;20128;-70
2023/08/25 09:59:13;;;;;;;24.27;18.75;;;23.30;99.90;;;;;;4876928;29;20045;-69
2023/08/25 10:01:44;;;;;;;23.55;19.23;;;23.40;99.90;;;;;;4862262;29;20049;-72
2023/08/25 10:04:10;;;;;;;27.17;18.33;;;23.50;99.90;;;;;;4876737;29;20049;-72
2023/08/25 10:06:38;;;;;;;25.90;19.17;;;23.50;99.90;;;;;;4887134;29;20458;-76
2023/08/25 10:09:06;;;;;;;25.63;17.73;;;23.50;99.90;;;;;;4879543;29;20088;-70
2023/08/25 10:11:44;;;;;;;25.92;18.25;;;23.50;99.90;;;;;;4876039;29;20110;-70
2023/08/25 10:14:12;;;;;;;26.20;18.90;;;23.50;99.90;;;;;;4880035;29;20060;-70
2023/08/25 10:16:49;;;;;;;24.67;18.50;;;23.40;99.90;;;;;;4877857;29;20432;-70
2023/08/25 10:19:20;;;;;;;23.85;18.73;;;23.30;99.90;;;;;;4875148;29;20114;-80
2023/08/25 10:21:49;;;;;;;28.40;17.83;;;23.20;99.90;;;;;;4877270;29;20052;-70
2023/08/25 10:24:20;;;;;;;25.08;19.17;;;23.20;99.90;;;;;;4874123;29;20049;-69
2023/08/25 10:26:47;;;;;;;26.75;20.23;;;23.10;99.90;;;;;;4879118;29;20125;-69
2023/08/25 10:29:20;;;;;;;26.20;19.02;;;23.10;99.90;;;;;;4861223;29;20069;-70
2023/08/25 10:31:51;;;;;;;23.25;18.08;;;23.10;99.90;;;;;;4877972;29;20057;-71
2023/08/25 10:34:43;;;;;;;23.48;19.50;;;23.00;99.90;;;;;;4872843;29;20113;-73
2023/08/25 10:37:12;;;;;;;29.70;19.95;;;22.90;99.90;;;;;;4878265;29;20550;-70
2023/08/25 10:39:52;;;;;;;28.33;20.75;;;22.90;99.90;;;;;;4879550;29;20383;-70
2023/08/25 10:42:20;;;;;;;27.33;20.27;;;22.80;99.90;;;;;;4876736;29;20060;-70
2023/08/25 10:44:47;;;;;;;31.23;21.58;;;22.70;99.90;;;;;;4877484;29;20124;-70
2023/08/25 10:47:18;;;;;;;34.42;23.42;;;22.60;99.90;;;;;;4879186;29;20117;-72
2023/08/25 10:49:45;;;;;;;32.53;23.98;;;22.60;99.90;;;;;;4878190;29;20056;-71
2023/08/25 10:52:15;;;;;;;39.65;29.20;;;22.50;99.90;;;;;;4878088;29;20037;-71
2023/08/25 10:54:44;;;;;;;34.35;27.02;;;22.40;99.90;;;;;;4876142;29;20049;-73
2023/08/25 10:57:40;;;;;;;32.25;24.90;;;22.30;99.90;;;;;;4877999;29;20052;-72
2023/08/25 11:00:29;;;;;;;60.08;45.80;;;22.30;99.90;;;;;;4874580;29;20056;-71
2023/08/25 11:02:56;;;;;;;33.30;25.70;;;22.20;99.90;;;;;;4878362;29;20484;-70
2023/08/25 11:05:33;;;;;;;44.78;34.45;;;22.10;99.90;;;;;;4882706;29;20408;-75
2023/08/25 11:08:04;;;;;;;37.75;28.92;;;22.20;99.90;;;;;;4869296;29;20045;-75
2023/08/25 11:10:35;;;;;;;35.47;29.60;;;22.20;99.90;;;;;;4880488;29;20128;-74
2023/08/25 11:13:06;;;;;;;32.60;26.70;;;22.10;99.90;;;;;;4878167;29;20064;-74
2023/08/25 11:15:35;;;;;;;41.67;28.67;;;22.20;99.90;;;;;;4880428;29;20116;-76
2023/08/25 11:18:01;;;;;;;39.17;29.00;;;22.20;99.90;;;;;;4880511;29;20080;-73
2023/08/25 11:20:29;;;;;;;41.03;28.95;;;22.20;99.90;;;;;;4884991;29;20355;-74
2023/08/25 11:22:56;;;;;;;38.92;29.35;;;22.20;99.90;;;;;;4881069;29;20488;-76
2023/08/25 11:25:24;;;;;;;34.70;30.55;;;22.20;99.90;;;;;;4880490;29;20049;-73
2023/08/25 11:27:51;;;;;;;36.95;30.27;;;22.00;99.90;;;;;;4880931;29;20041;-72
2023/08/25 11:30:17;;;;;;;42.85;32.58;;;21.90;99.90;;;;;;4880902;29;20444;-71
2023/08/25 11:32:52;;;;;;;34.97;28.95;;;21.80;99.90;;;;;;4880203;29;20444;-72
2023/08/25 11:35:17;;;;;;;36.50;30.02;;;21.70;99.90;;;;;;4880796;29;20041;-71
2023/08/25 11:37:47;;;;;;;32.47;28.88;;;21.70;99.90;;;;;;4880094;29;20056;-71
2023/08/25 11:40:18;;;;;;;38.28;28.63;;;21.70;99.90;;;;;;4880857;29;20045;-73
2023/08/25 11:42:45;;;;;;;35.72;29.52;;;21.60;99.90;;;;;;4878151;29;20060;-73
2023/08/25 11:45:11;;;;;;;37.47;30.13;;;21.70;99.90;;;;;;4878369;29;20345;-74
2023/08/25 11:47:40;;;;;;;39.38;32.45;;;21.70;99.90;;;;;;4879357;29;20057;-74
2023/08/25 11:50:06;;;;;;;43.90;33.97;;;21.70;99.90;;;;;;4879478;29;20484;-73
2023/08/25 11:52:36;;;;;;;42.72;33.45;;;21.70;99.90;;;;;;4865474;29;20046;-73
2023/08/25 11:55:01;;;;;;;40.22;32.80;;;21.70;99.90;;;;;;4879046;29;20041;-73
2023/08/25 11:57:37;;;;;;;40.08;30.83;;;21.70;99.90;;;;;;4880437;29;20512;-72
2023/08/25 12:00:05;;;;;;;38.70;30.42;;;21.70;99.90;;;;;;4880807;29;20131;-71
2023/08/25 12:02:31;;;;;;;38.35;30.15;;;21.80;99.90;;;;;;4882293;29;20081;-73
2023/08/25 12:05:03;;;;;;;35.33;29.58;;;21.80;99.90;;;;;;4871142;29;20384;-72
2023/08/25 12:07:32;;;;;;;36.47;30.00;;;21.90;99.90;;;;;;4877048;29;20107;-73
2023/08/25 12:10:06;;;;;;;29.25;26.10;;;22.10;99.90;;;;;;4878879;29;20059;-71
2023/08/25 12:12:32;;;;;;;;;;;22.10;99.90;;;;;;4882215;29;20083;-78
2023/08/25 12:14:58;;;;;;;31.40;27.50;;;22.20;99.90;;;;;;4884304;29;20370;-72
2023/08/25 12:17:26;;;;;;;33.05;26.75;;;22.10;99.90;;;;;;4879201;29;20208;-71
2023/08/25 12:19:52;;;;;;;32.95;26.77;;;22.20;99.90;;;;;;4878096;29;20051;-71
2023/08/25 12:22:18;;;;;;;33.15;27.98;;;22.20;99.90;;;;;;4880260;29;20041;-70
2023/08/25 12:24:45;;;;;;;29.02;25.42;;;22.20;99.90;;;;;;4877338;29;20097;-71
2023/08/25 12:27:11;;;;;;;32.00;25.23;;;22.20;99.90;;;;;;4878080;29;20037;-73
2023/08/25 12:29:36;;;;;;;28.55;23.33;;;22.20;99.90;;;;;;4876943;29;20060;-72